createdAt,value
2023-05-09T00:01:36.863Z,66.79
2023-05-09T00:04:04.240Z,67.49
2023-05-09T00:06:32.348Z,69.13
2023-05-09T00:08:59.507Z,69.66
2023-05-09T00:11:27.114Z,69.30
2023-05-09T00:13:54.249Z,68.49
2023-05-09T00:16:24.352Z,68.82
2023-05-09T00:18:51.761Z,68.90
2023-05-09T00:21:19.097Z,68.98
2023-05-09T00:23:47.339Z,69.15
2023-05-09T00:26:14.530Z,70.04
2023-05-09T00:28:43.722Z,70.27
2023-05-09T00:31:10.855Z,70.30
2023-05-09T00:33:37.952Z,71.06
2023-05-09T00:36:05.720Z,70.60
2023-05-09T00:38:32.911Z,71.65
2023-05-09T00:41:00.113Z,72.23
2023-05-09T00:43:27.286Z,73.17
2023-05-09T00:45:54.476Z,73.07
2023-05-09T00:48:22.276Z,73.17
2023-05-09T00:50:53.009Z,74.84
2023-05-09T00:53:39.025Z,74.04
2023-05-09T00:56:06.753Z,75.56
2023-05-09T00:58:33.913Z,78.11
2023-05-09T01:01:02.444Z,78.84
2023-05-09T01:03:31.281Z,79.90
2023-05-09T01:06:11.231Z,79.94
2023-05-09T01:08:54.292Z,78.71
2023-05-09T01:11:32.843Z,77.26
2023-05-09T01:14:08.628Z,76.67
2023-05-09T01:16:43.315Z,76.14
2023-05-09T01:19:32.075Z,76.36
2023-05-09T01:22:02.316Z,75.63
2023-05-09T01:24:29.871Z,74.86
2023-05-09T01:27:15.208Z,75.56
2023-05-09T01:29:45.134Z,76.59
2023-05-09T01:32:23.052Z,78.01
2023-05-09T01:34:52.849Z,78.55
2023-05-09T01:37:24.063Z,78.06
2023-05-09T01:39:54.932Z,78.01
2023-05-09T01:42:22.879Z,77.35
2023-05-09T01:44:51.009Z,76.12
2023-05-09T01:47:19.907Z,75.97
2023-05-09T01:49:48.166Z,75.63
2023-05-09T01:52:18.838Z,75.43
2023-05-09T01:54:46.541Z,75.62
2023-05-09T01:57:15.203Z,75.44
2023-05-09T01:59:45.051Z,78.04
2023-05-09T02:02:12.958Z,80.90
2023-05-09T02:04:43.553Z,80.65
2023-05-09T02:07:12.729Z,78.72
2023-05-09T02:09:39.965Z,72.29
2023-05-09T02:12:07.308Z,69.27
2023-05-09T02:14:34.471Z,62.65
2023-05-09T02:17:07.136Z,58.98
2023-05-09T02:19:35.916Z,56.20
2023-05-09T02:22:05.093Z,53.91
2023-05-09T02:24:34.324Z,51.05
2023-05-09T02:27:03.052Z,49.35
2023-05-09T02:29:40.836Z,46.99
2023-05-09T02:32:16.383Z,45.65
2023-05-09T02:34:44.160Z,46.38
2023-05-09T02:37:11.690Z,45.99
2023-05-09T02:39:39.093Z,44.96
2023-05-09T02:42:08.182Z,42.91
2023-05-09T02:44:35.407Z,42.25
2023-05-09T02:47:04.092Z,43.20
2023-05-09T02:49:32.771Z,46.03
2023-05-09T02:52:01.729Z,48.04
2023-05-09T02:54:29.671Z,47.65
2023-05-09T02:56:56.916Z,47.34
2023-05-09T02:59:24.031Z,48.50
2023-05-09T03:01:52.006Z,47.83
2023-05-09T03:04:19.902Z,46.59
2023-05-09T03:06:47.311Z,48.01
2023-05-09T03:09:14.669Z,52.79
2023-05-09T03:11:41.838Z,49.82
2023-05-09T03:14:09.944Z,49.57
2023-05-09T03:16:37.608Z,48.79
2023-05-09T03:19:07.064Z,48.82
2023-05-09T03:21:34.467Z,48.37
2023-05-09T03:24:01.998Z,46.35
2023-05-09T03:26:30.884Z,46.60
2023-05-09T03:28:59.009Z,46.43
2023-05-09T03:31:26.360Z,46.73
2023-05-09T03:33:53.555Z,46.00
2023-05-09T03:36:20.872Z,46.03
2023-05-09T03:38:48.090Z,46.27
2023-05-09T03:41:17.037Z,45.31
2023-05-09T03:43:46.081Z,45.10
2023-05-09T03:46:13.142Z,44.00
2023-05-09T03:48:41.552Z,42.72
2023-05-09T03:51:08.761Z,42.62
2023-05-09T03:53:39.274Z,43.02
2023-05-09T03:56:08.629Z,41.34
2023-05-09T03:58:42.770Z,39.28
2023-05-09T04:01:11.612Z,39.69
2023-05-09T04:03:39.626Z,39.64
2023-05-09T04:06:07.071Z,40.75
2023-05-09T04:08:38.223Z,41.29
2023-05-09T04:11:06.247Z,40.02
2023-05-09T04:13:34.638Z,40.23
2023-05-09T04:16:06.467Z,39.90
2023-05-09T04:18:34.499Z,40.57
2023-05-09T04:21:01.628Z,38.85
2023-05-09T04:23:28.759Z,38.98
2023-05-09T04:25:58.886Z,39.61
2023-05-09T04:28:27.050Z,38.44
2023-05-09T04:30:56.359Z,38.48
2023-05-09T04:33:24.433Z,38.04
2023-05-09T04:35:52.464Z,37.65
2023-05-09T04:38:19.574Z,37.55
2023-05-09T04:40:47.509Z,37.70
2023-05-09T04:43:14.927Z,37.45
2023-05-09T04:45:42.085Z,37.50
2023-05-09T04:48:09.350Z,37.00
2023-05-09T04:50:36.644Z,37.50
2023-05-09T04:53:03.789Z,36.75
2023-05-09T04:55:30.891Z,36.75
2023-05-09T04:57:57.941Z,36.82
2023-05-09T05:00:25.710Z,35.58
2023-05-09T05:02:52.931Z,36.52
2023-05-09T05:05:25.061Z,35.34
2023-05-09T05:07:54.372Z,36.49
2023-05-09T05:10:25.034Z,35.05
2023-05-09T05:13:00.385Z,34.75
2023-05-09T05:15:27.523Z,35.05
2023-05-09T05:17:55.808Z,36.27
2023-05-09T05:20:28.726Z,33.78
2023-05-09T05:22:56.386Z,34.26
2023-05-09T05:25:23.695Z,33.79
2023-05-09T05:27:52.819Z,35.23
2023-05-09T05:30:21.372Z,34.15
2023-05-09T05:32:49.419Z,33.55
2023-05-09T05:35:21.993Z,33.50
2023-05-09T05:37:49.985Z,34.69
2023-05-09T05:40:18.030Z,34.77
2023-05-09T05:42:47.996Z,33.48
2023-05-09T05:45:16.282Z,32.37
2023-05-09T05:47:47.772Z,32.57
2023-05-09T05:50:15.470Z,32.98
2023-05-09T05:52:43.347Z,33.03
2023-05-09T05:55:13.859Z,32.93
2023-05-09T05:57:41.534Z,32.89
2023-05-09T06:00:11.963Z,32.21
2023-05-09T06:02:49.830Z,32.55
2023-05-09T06:05:23.931Z,32.00
2023-05-09T06:07:52.065Z,32.05
2023-05-09T06:10:19.244Z,31.66
2023-05-09T06:12:47.584Z,31.58
2023-05-09T06:15:15.128Z,32.54
2023-05-09T06:17:46.326Z,32.05
2023-05-09T06:20:13.389Z,31.30
2023-05-09T06:22:40.611Z,31.83
2023-05-09T06:25:10.507Z,30.15
2023-05-09T06:27:38.563Z,32.15
2023-05-09T06:30:23.990Z,30.32
2023-05-09T06:32:53.621Z,30.50
2023-05-09T06:35:20.965Z,29.81
2023-05-09T06:37:48.970Z,30.09
2023-05-09T06:40:17.096Z,30.90
2023-05-09T06:42:45.138Z,30.37
2023-05-09T06:45:12.584Z,30.27
2023-05-09T06:47:40.031Z,29.03
2023-05-09T06:50:07.995Z,29.72
2023-05-09T06:52:35.252Z,28.43
2023-05-09T06:55:03.089Z,29.15
2023-05-09T06:57:33.094Z,27.83
2023-05-09T07:00:00.311Z,29.46
2023-05-09T07:02:27.866Z,28.74
2023-05-09T07:04:55.139Z,28.58
2023-05-09T07:07:22.524Z,28.44
2023-05-09T07:09:52.969Z,28.26
2023-05-09T07:12:22.721Z,26.15
2023-05-09T07:14:49.902Z,27.12
2023-05-09T07:17:23.417Z,27.69
2023-05-09T07:19:51.969Z,27.56
2023-05-09T07:22:19.491Z,26.89
2023-05-09T07:24:47.289Z,26.95
2023-05-09T07:27:14.567Z,26.91
2023-05-09T07:29:41.795Z,26.52
2023-05-09T07:32:09.169Z,26.40
2023-05-09T07:34:36.655Z,26.21
2023-05-09T07:37:03.842Z,25.49
2023-05-09T07:39:31.061Z,25.97
2023-05-09T07:41:58.355Z,25.97
2023-05-09T07:44:25.954Z,25.61
2023-05-09T07:46:55.517Z,25.71
2023-05-09T07:49:23.425Z,26.79
2023-05-09T07:51:50.656Z,26.37
2023-05-09T07:54:17.888Z,27.04
2023-05-09T07:56:44.999Z,27.39
2023-05-09T07:59:12.461Z,27.79
2023-05-09T08:01:39.874Z,26.77
2023-05-09T08:04:09.429Z,27.23
2023-05-09T08:06:36.906Z,26.82
2023-05-09T08:09:07.779Z,27.83
2023-05-09T08:11:36.136Z,27.25
2023-05-09T08:14:03.403Z,28.05
2023-05-09T08:16:30.946Z,26.31
2023-05-09T08:18:58.357Z,25.50
2023-05-09T08:21:26.652Z,26.32
2023-05-09T08:23:53.982Z,25.20
2023-05-09T08:26:22.745Z,26.06
2023-05-09T08:28:49.990Z,25.86
2023-05-09T08:31:17.298Z,24.00
2023-05-09T08:33:44.516Z,23.97
2023-05-09T08:36:11.856Z,23.99
2023-05-09T08:38:40.748Z,24.61
2023-05-09T08:41:08.023Z,24.99
2023-05-09T08:43:36.361Z,25.82
2023-05-09T08:46:08.682Z,25.78
2023-05-09T08:48:39.726Z,24.94
2023-05-09T08:51:07.503Z,24.35
2023-05-09T08:53:34.874Z,24.69
2023-05-09T08:56:04.223Z,25.62
2023-05-09T08:58:32.117Z,26.28
2023-05-09T09:01:00.228Z,26.12
2023-05-09T09:03:27.739Z,27.18
2023-05-09T09:05:55.857Z,27.67
2023-05-09T09:08:23.302Z,26.21
2023-05-09T09:10:50.749Z,27.07
2023-05-09T09:13:18.906Z,27.01
2023-05-09T09:15:47.314Z,26.08
2023-05-09T09:18:22.783Z,24.95
2023-05-09T09:20:58.009Z,24.88
2023-05-09T09:23:26.805Z,24.59
2023-05-09T09:26:02.249Z,25.14
2023-05-09T09:28:29.724Z,26.44
2023-05-09T09:30:57.493Z,26.82
2023-05-09T09:33:26.688Z,24.76
2023-05-09T09:35:55.570Z,24.36
2023-05-09T09:38:24.850Z,24.63
2023-05-09T09:40:52.012Z,25.71
2023-05-09T09:43:19.755Z,25.38
2023-05-09T09:45:51.482Z,24.49
2023-05-09T09:48:19.145Z,25.31
2023-05-09T09:50:48.417Z,25.02
2023-05-09T09:53:16.683Z,24.94
2023-05-09T09:55:52.139Z,25.46
2023-05-09T09:58:25.116Z,25.88
2023-05-09T10:01:14.232Z,25.79
2023-05-09T10:03:44.354Z,25.79
2023-05-09T10:06:16.639Z,25.58
2023-05-09T10:08:46.937Z,25.60
2023-05-09T10:11:15.529Z,25.54
2023-05-09T10:13:44.682Z,26.26
2023-05-09T10:16:14.005Z,25.58
2023-05-09T10:18:43.180Z,26.00
2023-05-09T10:21:15.304Z,24.47
2023-05-09T10:23:48.977Z,24.72
2023-05-09T10:26:18.640Z,24.06
2023-05-09T10:28:49.497Z,24.81
2023-05-09T10:31:23.925Z,24.83
2023-05-09T10:33:51.551Z,23.78
2023-05-09T10:36:20.935Z,24.81
2023-05-09T10:38:49.446Z,25.26
2023-05-09T10:41:17.637Z,24.24
2023-05-09T10:43:46.114Z,25.04
2023-05-09T10:46:14.077Z,25.61
2023-05-09T10:48:42.342Z,25.72
2023-05-09T10:51:10.483Z,25.62
2023-05-09T10:53:42.832Z,25.10
2023-05-09T10:56:23.520Z,24.84
2023-05-09T10:58:50.498Z,25.05
2023-05-09T11:01:30.668Z,25.86
2023-05-09T11:04:00.128Z,25.15
2023-05-09T11:06:51.121Z,24.82
2023-05-09T11:09:39.254Z,25.09
2023-05-09T11:12:15.552Z,25.23
2023-05-09T11:14:48.863Z,24.80
2023-05-09T11:17:29.266Z,24.00
2023-05-09T11:20:03.474Z,24.89
2023-05-09T11:22:44.688Z,25.68
2023-05-09T11:25:13.960Z,25.70
2023-05-09T11:27:49.961Z,26.13
2023-05-09T11:30:19.672Z,25.51
2023-05-09T11:32:52.392Z,24.50
2023-05-09T11:35:21.704Z,25.11
2023-05-09T11:38:05.678Z,25.42
2023-05-09T11:40:35.005Z,25.67
2023-05-09T11:43:02.487Z,25.88
2023-05-09T11:45:31.665Z,25.62
2023-05-09T11:47:59.444Z,24.67
2023-05-09T11:50:26.677Z,25.16
2023-05-09T11:52:54.493Z,25.28
2023-05-09T11:55:23.126Z,24.99
2023-05-09T11:57:53.210Z,24.65
2023-05-09T12:00:25.847Z,24.35
2023-05-09T12:02:53.812Z,24.97
2023-05-09T12:05:22.904Z,27.20
2023-05-09T12:07:51.019Z,24.54
2023-05-09T12:10:25.575Z,24.45
2023-05-09T12:12:55.666Z,24.41
2023-05-09T12:15:23.972Z,23.92
2023-05-09T12:18:05.371Z,24.06
2023-05-09T12:20:47.758Z,24.96
2023-05-09T12:23:15.305Z,24.42
2023-05-09T12:25:49.544Z,23.99
2023-05-09T12:28:17.789Z,24.83
2023-05-09T12:30:45.532Z,24.39
2023-05-09T12:33:12.822Z,24.61
2023-05-09T12:35:40.656Z,24.60
2023-05-09T12:38:07.921Z,24.40
2023-05-09T12:40:35.076Z,24.36
2023-05-09T12:43:03.102Z,24.83
2023-05-09T12:45:33.817Z,24.23
2023-05-09T12:48:02.595Z,25.06
2023-05-09T12:50:36.936Z,25.56
2023-05-09T12:53:07.674Z,25.15
2023-05-09T12:55:39.138Z,24.81
2023-05-09T12:58:06.195Z,24.10
2023-05-09T13:00:46.361Z,23.98
2023-05-09T13:03:25.472Z,24.61
2023-05-09T13:06:04.856Z,24.26
2023-05-09T13:08:32.162Z,23.87
2023-05-09T13:11:14.444Z,23.99
2023-05-09T13:13:43.188Z,24.60
2023-05-09T13:16:11.645Z,24.37
2023-05-09T13:18:40.928Z,23.44
2023-05-09T13:21:08.141Z,23.81
2023-05-09T13:23:35.246Z,24.58
2023-05-09T13:26:02.410Z,24.17
2023-05-09T13:28:29.868Z,24.31
2023-05-09T13:30:56.997Z,23.86
2023-05-09T13:33:26.456Z,24.10
2023-05-09T13:35:54.270Z,23.91
2023-05-09T13:38:21.724Z,23.15
2023-05-09T13:40:48.869Z,23.69
2023-05-09T13:43:15.952Z,23.55
2023-05-09T13:45:43.299Z,23.86
2023-05-09T13:48:13.598Z,23.97
2023-05-09T13:50:40.811Z,24.39
2023-05-09T13:53:07.958Z,24.66
2023-05-09T13:55:35.330Z,24.64
2023-05-09T13:58:02.431Z,24.33
2023-05-09T14:00:29.829Z,24.04
2023-05-09T14:02:57.055Z,24.74
2023-05-09T14:05:24.179Z,25.17
2023-05-09T14:07:51.296Z,25.48
2023-05-09T14:10:18.525Z,25.36
2023-05-09T14:12:47.332Z,25.12
2023-05-09T14:15:14.603Z,26.06
2023-05-09T14:17:43.597Z,25.71
2023-05-09T14:20:11.155Z,25.27
2023-05-09T14:22:38.332Z,25.39
2023-05-09T14:25:06.273Z,25.94
2023-05-09T14:27:36.999Z,26.75
2023-05-09T14:30:04.987Z,25.67
2023-05-09T14:32:33.269Z,24.61
2023-05-09T14:35:00.583Z,24.60
2023-05-09T14:37:29.623Z,24.74
2023-05-09T14:39:56.854Z,24.70
2023-05-09T14:42:23.938Z,25.60
2023-05-09T14:44:51.006Z,25.81
2023-05-09T14:47:18.172Z,25.61
2023-05-09T14:49:45.271Z,26.09
2023-05-09T14:52:13.806Z,26.08
2023-05-09T14:54:42.007Z,26.36
2023-05-09T14:57:09.169Z,26.17
2023-05-09T14:59:37.292Z,26.44
2023-05-09T15:02:04.639Z,26.68
2023-05-09T15:04:31.941Z,26.58
2023-05-09T15:06:59.267Z,26.49
2023-05-09T15:09:41.833Z,26.83
2023-05-09T15:12:08.932Z,26.68
2023-05-09T15:14:36.101Z,26.68
2023-05-09T15:17:04.450Z,26.76
2023-05-09T15:19:32.602Z,26.25
2023-05-09T15:22:00.329Z,26.04
2023-05-09T15:24:27.573Z,27.87
2023-05-09T15:26:54.635Z,28.67
2023-05-09T15:29:21.941Z,28.59
2023-05-09T15:31:49.179Z,29.19
2023-05-09T15:34:17.155Z,28.35
2023-05-09T15:36:44.319Z,27.90
2023-05-09T15:39:11.855Z,27.29
2023-05-09T15:41:39.113Z,27.54
2023-05-09T15:44:07.419Z,26.59
2023-05-09T15:46:34.868Z,27.83
2023-05-09T15:49:02.090Z,29.17
2023-05-09T15:51:30.226Z,29.02
2023-05-09T15:53:57.483Z,29.46
2023-05-09T15:56:24.610Z,29.95
2023-05-09T15:58:51.748Z,29.39
2023-05-09T16:01:19.222Z,29.94
2023-05-09T16:03:48.644Z,29.44
2023-05-09T16:06:16.052Z,30.23
2023-05-09T16:08:43.224Z,30.50
2023-05-09T16:11:10.444Z,29.20
2023-05-09T16:13:37.951Z,28.10
2023-05-09T16:16:05.442Z,27.11
2023-05-09T16:18:32.570Z,27.07
2023-05-09T16:20:59.784Z,27.82
2023-05-09T16:23:26.877Z,29.17
2023-05-09T16:25:53.973Z,29.51
2023-05-09T16:28:23.616Z,32.05
2023-05-09T16:30:51.598Z,33.39
2023-05-09T16:33:18.797Z,35.02
2023-05-09T16:35:46.328Z,33.62
2023-05-09T16:38:13.458Z,34.59
2023-05-09T16:40:40.742Z,36.03
2023-05-09T16:43:07.847Z,35.29
2023-05-09T16:45:35.252Z,35.33
2023-05-09T16:48:02.653Z,35.00
2023-05-09T16:50:30.071Z,35.24
2023-05-09T16:52:57.259Z,35.63
2023-05-09T16:55:24.507Z,35.86
2023-05-09T16:57:51.651Z,35.69
2023-05-09T17:00:19.251Z,36.32
2023-05-09T17:02:46.446Z,35.55
2023-05-09T17:05:13.624Z,36.30
2023-05-09T17:07:40.776Z,37.00
2023-05-09T17:10:08.367Z,37.78
2023-05-09T17:12:36.239Z,37.29
2023-05-09T17:15:03.478Z,36.99
2023-05-09T17:17:32.214Z,36.73
2023-05-09T17:20:01.134Z,37.12
2023-05-09T17:22:31.567Z,37.85
2023-05-09T17:24:58.700Z,38.14
2023-05-09T17:27:27.153Z,39.04
2023-05-09T17:29:54.375Z,38.68
2023-05-09T17:32:21.610Z,38.88
2023-05-09T17:34:48.767Z,39.25
2023-05-09T17:37:17.051Z,38.82
2023-05-09T17:39:44.512Z,38.70
2023-05-09T17:42:12.465Z,37.89
2023-05-09T17:44:40.679Z,38.01
2023-05-09T17:47:09.496Z,36.54
2023-05-09T17:49:36.624Z,37.12
2023-05-09T17:52:03.751Z,37.28
2023-05-09T17:54:30.925Z,38.70
2023-05-09T17:57:01.368Z,39.49
2023-05-09T17:59:28.994Z,40.03
2023-05-09T18:01:56.221Z,40.36
2023-05-09T18:04:23.341Z,40.13
2023-05-09T18:06:50.566Z,40.39
2023-05-09T18:09:17.749Z,39.72
2023-05-09T18:11:45.016Z,39.78
2023-05-09T18:14:13.691Z,38.87
2023-05-09T18:16:40.917Z,40.29
2023-05-09T18:19:08.303Z,41.08
2023-05-09T18:21:35.607Z,39.68
2023-05-09T18:24:02.771Z,36.15
2023-05-09T18:26:29.907Z,38.62
2023-05-09T18:28:57.734Z,40.43
2023-05-09T18:31:25.004Z,41.15
2023-05-09T18:33:52.126Z,41.74
2023-05-09T18:36:19.281Z,41.02
2023-05-09T18:38:47.881Z,41.49
2023-05-09T18:41:15.865Z,40.86
2023-05-09T18:43:46.252Z,42.02
2023-05-09T18:46:17.539Z,41.67
2023-05-09T18:48:45.637Z,41.54
2023-05-09T18:51:13.097Z,41.61
2023-05-09T18:53:40.573Z,42.16
2023-05-09T18:56:08.983Z,42.04
2023-05-09T18:58:36.630Z,43.21
2023-05-09T19:01:04.798Z,41.26
2023-05-09T19:03:32.184Z,41.85
2023-05-09T19:06:00.072Z,40.53
2023-05-09T19:08:27.420Z,41.99
2023-05-09T19:10:54.823Z,39.63
2023-05-09T19:13:22.026Z,40.04
2023-05-09T19:15:49.350Z,39.24
2023-05-09T19:18:16.588Z,40.88
2023-05-09T19:20:43.811Z,40.33
2023-05-09T19:23:12.188Z,40.89
2023-05-09T19:25:39.429Z,41.36
2023-05-09T19:28:06.683Z,41.10
2023-05-09T19:30:34.326Z,40.81
2023-05-09T19:33:03.842Z,41.27
2023-05-09T19:35:31.007Z,41.17
2023-05-09T19:38:01.473Z,41.77
2023-05-09T19:40:28.598Z,42.53
2023-05-09T19:42:55.863Z,43.08
2023-05-09T19:45:22.988Z,42.45
2023-05-09T19:47:50.148Z,43.66
2023-05-09T19:50:17.659Z,43.25
2023-05-09T19:52:44.885Z,43.56
2023-05-09T19:55:12.872Z,43.42
2023-05-09T19:57:40.646Z,43.53
2023-05-09T20:00:08.470Z,44.33
2023-05-09T20:02:37.374Z,45.16
2023-05-09T20:05:04.759Z,44.92
2023-05-09T20:07:33.722Z,44.94
2023-05-09T20:10:00.966Z,43.94
2023-05-09T20:12:30.153Z,44.15
2023-05-09T20:14:57.624Z,44.23
2023-05-09T20:17:24.720Z,44.62
2023-05-09T20:19:51.881Z,42.96
2023-05-09T20:22:18.969Z,42.62
2023-05-09T20:24:46.388Z,39.04
2023-05-09T20:27:13.463Z,38.65
2023-05-09T20:29:40.606Z,37.95
2023-05-09T20:32:07.908Z,37.75
2023-05-09T20:34:35.176Z,37.76
2023-05-09T20:37:02.486Z,38.61
2023-05-09T20:39:29.594Z,39.54
2023-05-09T20:41:58.821Z,39.60
2023-05-09T20:44:25.909Z,39.16
2023-05-09T20:46:53.082Z,39.99
2023-05-09T20:49:20.166Z,40.26
2023-05-09T20:51:47.227Z,40.71
2023-05-09T20:54:14.430Z,38.06
2023-05-09T20:56:41.936Z,37.48
2023-05-09T20:59:09.072Z,37.47
2023-05-09T21:01:36.945Z,38.48
2023-05-09T21:04:05.977Z,40.44
2023-05-09T21:06:33.597Z,40.36
2023-05-09T21:09:00.691Z,40.58
2023-05-09T21:11:27.950Z,39.25
2023-05-09T21:13:55.212Z,38.61
2023-05-09T21:16:23.135Z,38.39
2023-05-09T21:18:50.435Z,38.26
2023-05-09T21:21:17.641Z,40.48
2023-05-09T21:23:44.696Z,39.57
2023-05-09T21:26:11.849Z,39.02
2023-05-09T21:28:38.956Z,40.43
2023-05-09T21:31:06.769Z,39.19
2023-05-09T21:33:34.750Z,40.36
2023-05-09T21:36:02.372Z,41.25
2023-05-09T21:38:29.496Z,42.42
2023-05-09T21:40:56.671Z,42.57
2023-05-09T21:43:24.020Z,42.12
2023-05-09T21:45:51.098Z,42.63
2023-05-09T21:48:18.255Z,42.63
2023-05-09T21:50:46.432Z,43.59
2023-05-09T21:53:13.990Z,45.55
2023-05-09T21:55:41.512Z,45.58
2023-05-09T21:58:08.742Z,42.93
2023-05-09T22:00:35.908Z,43.60
2023-05-09T22:03:03.371Z,43.41
2023-05-09T22:05:30.531Z,43.74
2023-05-09T22:07:57.647Z,43.39
2023-05-09T22:10:24.928Z,43.86
2023-05-09T22:12:52.024Z,42.71
2023-05-09T22:15:19.414Z,43.42
2023-05-09T22:17:46.779Z,43.19
2023-05-09T22:20:14.101Z,41.73
2023-05-09T22:22:41.303Z,42.28
2023-05-09T22:25:08.754Z,43.71
2023-05-09T22:27:36.028Z,44.29
2023-05-09T22:30:03.516Z,45.05
2023-05-09T22:32:33.325Z,45.88
2023-05-09T22:35:00.487Z,46.79
2023-05-09T22:37:27.597Z,46.31
2023-05-09T22:39:54.692Z,45.72
2023-05-09T22:42:21.822Z,44.85
2023-05-09T22:44:49.893Z,45.38
2023-05-09T22:47:17.067Z,46.09
2023-05-09T22:49:45.836Z,46.27
2023-05-09T22:52:13.296Z,46.60
2023-05-09T22:54:40.684Z,46.67
2023-05-09T22:57:07.899Z,47.81
2023-05-09T22:59:35.069Z,47.94
2023-05-09T23:02:02.141Z,47.91
2023-05-09T23:04:29.355Z,49.97
2023-05-09T23:06:56.485Z,47.57
2023-05-09T23:09:23.560Z,46.85
2023-05-09T23:11:50.720Z,46.40
2023-05-09T23:14:18.115Z,46.86
2023-05-09T23:16:45.257Z,46.81
2023-05-09T23:19:12.439Z,45.79
2023-05-09T23:21:39.546Z,46.57
2023-05-09T23:24:06.876Z,47.86
2023-05-09T23:26:34.017Z,47.41
2023-05-09T23:29:01.276Z,48.76
2023-05-09T23:31:28.492Z,49.48
2023-05-09T23:33:55.575Z,46.11
2023-05-09T23:36:22.958Z,45.97
2023-05-09T23:38:50.017Z,47.20
2023-05-09T23:41:17.133Z,47.83
2023-05-09T23:43:44.195Z,47.49
2023-05-09T23:46:11.593Z,48.58
2023-05-09T23:48:39.187Z,48.59
2023-05-09T23:51:06.303Z,49.09
2023-05-09T23:53:35.301Z,50.46
2023-05-09T23:56:03.059Z,51.81
2023-05-09T23:58:30.290Z,49.54
